Time;durP1;ratioP1;P1;durP2;ratioP2;P2;SDS_P1;SDS_P2;PMS_P1;PMS_P2;Temp;Humidity;BMP_temperature;BMP_pressure;BME280_temperature;BME280_humidity;BME280_pressure;Samples;Min_cycle;Max_cycle;Signal;HPM_P1;HPM_P2
2022/01/04 00:02:13;;;;;;;5.32;4.25;;;16.90;53.20;16.10;99751.00;;;;5020862;28;20072;-67
2022/01/04 00:04:59;;;;;;;7.05;4.43;;;17.00;53.20;16.10;99741.00;;;;5021099;28;20040;-67
2022/01/04 00:07:46;;;;;;;6.25;4.07;;;16.90;53.20;16.10;99733.00;;;;5019547;28;20783;-67
2022/01/04 00:10:32;;;;;;;6.50;4.18;;;16.90;53.20;16.10;99727.00;;;;5021382;28;20391;-67
2022/01/04 00:13:23;;;;;;;5.03;3.70;;;16.90;53.30;16.10;99721.00;;;;5020194;28;20094;-67
2022/01/04 00:16:10;;;;;;;6.43;3.85;;;16.90;53.30;16.10;99711.00;;;;5018655;28;20043;-67
2022/01/04 00:18:57;;;;;;;9.10;3.95;;;16.90;53.30;16.10;99716.00;;;;5019940;28;20052;-67
2022/01/04 00:21:43;;;;;;;8.57;4.00;;;16.90;53.30;16.10;99703.00;;;;5017190;28;20371;-67
2022/01/04 00:24:29;;;;;;;5.72;4.30;;;17.00;53.30;16.10;99695.00;;;;5004996;28;20053;-67
2022/01/04 00:27:15;;;;;;;7.03;3.88;;;17.00;53.30;16.10;99705.00;;;;5020779;28;20041;-67
2022/01/04 00:30:01;;;;;;;5.03;3.72;;;16.90;53.30;16.10;99690.00;;;;5005109;28;20509;-67
2022/01/04 00:32:48;;;;;;;4.32;3.58;;;17.00;53.30;16.10;99684.00;;;;5005039;28;20053;-66
2022/01/04 00:35:34;;;;;;;5.45;3.72;;;17.00;53.30;16.20;99675.00;;;;5023062;28;20528;-67
2022/01/04 00:38:20;;;;;;;4.97;3.53;;;16.90;53.30;16.10;99677.00;;;;5015585;28;20065;-67
2022/01/04 00:41:06;;;;;;;5.05;3.88;;;17.00;53.30;16.10;99672.00;;;;5010529;28;20092;-67
2022/01/04 00:43:52;;;;;;;6.40;3.88;;;17.00;54.00;16.10;99667.00;;;;5016356;28;20391;-67
2022/01/04 00:46:38;;;;;;;6.68;3.58;;;17.00;53.30;16.10;99659.00;;;;5000975;28;20042;-67
2022/01/04 00:49:25;;;;;;;5.00;3.60;;;17.00;53.30;16.20;99656.00;;;;5018364;28;20049;-67
2022/01/04 00:52:16;;;;;;;5.07;3.75;;;17.00;53.30;16.20;99656.00;;;;5002185;28;20049;-67
2022/01/04 00:55:03;;;;;;;5.32;3.60;;;17.00;53.30;16.20;99647.00;;;;5007670;28;20111;-67
2022/01/04 00:57:49;;;;;;;4.60;3.67;;;17.00;53.30;16.20;99638.00;;;;5013059;28;20061;-67
2022/01/04 01:00:36;;;;;;;6.55;3.92;;;17.00;53.30;16.20;99646.00;;;;5017976;28;20044;-67
2022/01/04 01:03:22;;;;;;;4.35;3.22;;;17.00;53.30;16.10;99639.00;;;;5014559;28;20119;-67
2022/01/04 01:06:09;;;;;;;3.92;3.38;;;17.00;53.30;16.20;99638.00;;;;5024489;28;20154;-67
2022/01/04 01:08:55;;;;;;;4.70;3.25;;;17.00;53.30;16.20;99628.00;;;;5018812;28;20045;-67
2022/01/04 01:11:41;;;;;;;6.35;3.60;;;17.00;53.30;16.20;99617.00;;;;5011346;28;20407;-67
2022/01/04 01:14:28;;;;;;;6.38;3.28;;;17.00;53.30;16.20;99612.00;;;;5022261;28;20495;-67
2022/01/04 01:17:14;;;;;;;6.82;3.97;;;17.00;53.30;16.20;99606.00;;;;5021647;28;20063;-67
2022/01/04 01:20:00;;;;;;;6.20;3.25;;;17.00;53.40;16.20;99603.00;;;;5000678;28;20123;-67
2022/01/04 01:22:47;;;;;;;6.07;3.35;;;17.00;53.30;16.20;99601.00;;;;4996992;28;20116;-67
2022/01/04 01:25:33;;;;;;;6.35;3.30;;;17.00;53.40;16.20;99598.00;;;;5017018;28;20045;-67
2022/01/04 01:28:19;;;;;;;3.58;2.97;;;17.00;53.40;16.10;99593.00;;;;5021264;28;20532;-67
2022/01/04 01:31:07;;;;;;;4.15;3.20;;;17.00;53.40;16.20;99591.00;;;;5003085;28;20403;-67
2022/01/04 01:33:53;;;;;;;8.63;3.00;;;17.00;53.40;16.20;99595.00;;;;4988105;28;20045;-67
2022/01/04 01:36:39;;;;;;;4.63;2.65;;;17.00;53.40;16.20;99592.00;;;;5021418;28;20414;-67
2022/01/04 01:39:25;;;;;;;5.07;3.35;;;17.00;53.40;16.20;99592.00;;;;5016860;28;20401;-67
2022/01/04 01:42:11;;;;;;;6.25;3.10;;;17.00;54.00;16.20;99586.00;;;;5020042;28;20079;-67
2022/01/04 01:44:58;;;;;;;4.68;3.25;;;17.00;53.40;16.20;99582.00;;;;5025875;28;20079;-67
2022/01/04 01:47:44;;;;;;;5.03;2.90;;;17.00;53.30;16.10;99578.00;;;;5017722;28;20109;-67
2022/01/04 01:50:31;;;;;;;5.53;3.15;;;17.00;53.40;16.20;99568.00;;;;5001864;28;20216;-67
2022/01/04 01:53:17;;;;;;;6.90;3.65;;;17.00;53.40;16.10;99575.00;;;;4970463;28;20679;-67
2022/01/04 01:56:03;;;;;;;5.07;2.95;;;17.00;53.40;16.20;99576.00;;;;5017383;28;20495;-67
2022/01/04 01:58:50;;;;;;;5.70;3.40;;;17.00;53.40;16.10;99574.00;;;;5015421;28;20053;-67
2022/01/04 02:01:36;;;;;;;5.63;3.10;;;17.00;53.30;16.10;99572.00;;;;5003143;28;20207;-67
2022/01/04 02:04:22;;;;;;;4.18;2.97;;;17.00;53.40;16.10;99557.00;;;;5024142;28;20071;-67
2022/01/04 02:07:08;;;;;;;5.22;2.75;;;17.10;53.40;16.10;99549.00;;;;5013964;28;20384;-67
2022/01/04 02:10:13;;;;;;;3.53;2.63;;;17.00;53.40;16.10;99550.00;;;;5002486;28;20049;-67
2022/01/04 02:12:59;;;;;;;5.10;3.03;;;17.00;53.40;16.10;99546.00;;;;5018021;28;20068;-67
2022/01/04 02:15:45;;;;;;;4.28;2.60;;;17.00;53.40;16.10;99542.00;;;;5002901;28;20038;-67
2022/01/04 02:18:31;;;;;;;5.28;2.80;;;17.00;53.40;16.10;99532.00;;;;5016988;28;20116;-67
2022/01/04 02:21:18;;;;;;;5.90;2.75;;;17.00;53.40;16.10;99525.00;;;;5014591;28;20438;-67
2022/01/04 02:24:04;;;;;;;4.20;2.42;;;17.00;53.40;16.10;99519.00;;;;5021256;28;20487;-67
2022/01/04 02:26:50;;;;;;;4.55;2.63;;;17.00;53.40;16.10;99516.00;;;;5011955;28;20610;-67
2022/01/04 02:29:36;;;;;;;3.88;2.72;;;17.00;53.40;16.10;99512.00;;;;4990287;28;20056;-67
2022/01/04 02:32:23;;;;;;;5.25;2.88;;;16.90;53.40;16.10;99508.00;;;;5016829;28;20051;-67
2022/01/04 02:35:10;;;;;;;4.93;2.30;;;16.90;53.40;16.10;99506.00;;;;5016555;28;20533;-67
2022/01/04 02:37:57;;;;;;;4.20;2.50;;;17.00;53.50;16.10;99501.00;;;;5011734;28;20033;-67
2022/01/04 02:40:44;;;;;;;4.22;2.50;;;17.00;53.40;16.10;99499.00;;;;5026634;28;20773;-67
2022/01/04 02:43:30;;;;;;;3.53;2.25;;;17.00;53.40;16.10;99494.00;;;;5017036;28;20399;-67
2022/01/04 02:46:16;;;;;;;4.93;2.80;;;17.00;53.40;16.10;99487.00;;;;5003894;28;20144;-67
2022/01/04 02:49:02;;;;;;;4.40;2.80;;;17.00;53.40;16.10;99481.00;;;;5015057;28;20045;-67
2022/01/04 02:51:49;;;;;;;4.80;2.20;;;17.00;53.40;16.10;99487.00;;;;5019193;28;20084;-67
2022/01/04 02:54:35;;;;;;;2.75;2.20;;;17.00;53.40;16.10;99486.00;;;;5004635;28;20542;-67
2022/01/04 02:57:21;;;;;;;3.65;1.90;;;17.00;53.40;16.10;99479.00;;;;5019636;28;20068;-67
2022/01/04 03:00:12;;;;;;;5.38;2.40;;;16.90;53.30;16.10;99484.00;;;;5001017;28;20446;-67
2022/01/04 03:02:58;;;;;;;3.22;2.20;;;16.90;53.30;16.10;99481.00;;;;5003204;28;20042;-67
2022/01/04 03:05:45;;;;;;;3.78;2.28;;;16.90;53.30;16.10;99483.00;;;;5017238;28;20045;-67
2022/01/04 03:08:31;;;;;;;3.22;2.17;;;17.00;53.40;16.10;99480.00;;;;5019423;28;20045;-67
2022/01/04 03:11:17;;;;;;;3.35;2.10;;;16.90;53.30;16.10;99475.00;;;;5024699;28;20045;-67
2022/01/04 03:14:04;;;;;;;3.28;2.25;;;16.90;53.30;16.10;99477.00;;;;5008187;28;20096;-67
2022/01/04 03:16:50;;;;;;;3.72;2.05;;;16.90;53.30;16.10;99465.00;;;;5020648;28;20042;-67
2022/01/04 03:19:36;;;;;;;3.60;2.17;;;16.90;53.30;16.10;99467.00;;;;5017818;28;20045;-67
2022/01/04 03:22:22;;;;;;;3.67;1.88;;;17.00;53.30;16.10;99463.00;;;;5019071;28;20048;-67
2022/01/04 03:25:09;;;;;;;2.65;1.83;;;17.00;53.30;16.10;99455.00;;;;5025179;28;20124;-67
2022/01/04 03:27:55;;;;;;;2.35;1.90;;;16.90;54.00;16.10;99459.00;;;;5019500;28;20048;-67
2022/01/04 03:30:42;;;;;;;2.35;2.15;;;16.90;53.30;16.10;99451.00;;;;5021923;28;20580;-67
2022/01/04 03:33:28;;;;;;;5.28;2.47;;;16.90;53.30;16.10;99442.00;;;;5021384;28;21644;-67
2022/01/04 03:36:14;;;;;;;2.30;1.73;;;16.90;53.20;16.10;99428.00;;;;5015434;28;20474;-67
2022/01/04 03:39:04;;;;;;;3.08;2.17;;;16.90;53.30;16.10;99429.00;;;;5003144;28;20038;-67
2022/01/04 03:41:51;;;;;;;2.63;2.05;;;16.90;53.20;16.10;99431.00;;;;5024021;28;20297;-66
2022/01/04 03:44:37;;;;;;;3.53;2.50;;;16.90;53.20;16.10;99424.00;;;;5020475;28;20045;-67
2022/01/04 03:47:23;;;;;;;3.45;2.22;;;16.90;53.20;16.10;99423.00;;;;5018072;28;20498;-67
2022/01/04 03:50:10;;;;;;;3.10;2.10;;;16.90;53.20;16.10;99412.00;;;;5018440;28;20045;-67
2022/01/04 03:52:56;;;;;;;3.70;2.17;;;16.90;53.20;16.10;99405.00;;;;5027241;28;20067;-67
2022/01/04 03:55:42;;;;;;;3.88;2.13;;;16.90;53.20;16.10;99398.00;;;;5018489;28;20072;-67
2022/01/04 03:58:28;;;;;;;3.83;2.20;;;16.90;53.20;16.10;99387.00;;;;5021037;28;20506;-67
2022/01/04 04:01:14;;;;;;;3.47;2.05;;;16.90;53.30;16.10;99390.00;;;;5021034;28;20045;-67
2022/01/04 04:04:01;;;;;;;2.92;2.00;;;16.90;53.20;16.10;99379.00;;;;5027386;28;20107;-67
2022/01/04 04:06:47;;;;;;;3.78;2.45;;;16.90;53.20;16.10;99371.00;;;;5021239;28;20398;-67
2022/01/04 04:09:35;;;;;;;2.90;2.05;;;16.90;53.30;16.10;99380.00;;;;5020572;28;20588;-67
2022/01/04 04:12:23;;;;;;;;;;;16.90;53.30;16.10;99354.00;;;;5023409;28;20042;-67
2022/01/04 04:15:11;;;;;;;3.42;2.08;;;16.90;53.40;16.10;99346.00;;;;5001170;28;19921;-67
2022/01/04 04:17:57;;;;;;;4.00;2.08;;;16.90;53.20;16.10;99341.00;;;;5019194;28;20470;-67
2022/01/04 04:20:44;;;;;;;2.92;2.17;;;16.90;53.20;16.10;99336.00;;;;5015747;28;20131;-67
2022/01/04 04:23:30;;;;;;;4.35;2.30;;;16.90;53.20;16.10;99325.00;;;;5001008;28;20064;-67
2022/01/04 04:26:16;;;;;;;4.53;2.63;;;17.00;53.30;16.10;99315.00;;;;5000966;28;20049;-67
2022/01/04 04:29:02;;;;;;;2.85;2.08;;;16.90;53.30;16.00;99311.00;;;;5024705;28;20450;-67
2022/01/04 04:31:49;;;;;;;4.60;2.38;;;16.90;53.30;16.10;99310.00;;;;5003364;28;20057;-67
2022/01/04 04:34:35;;;;;;;3.85;2.45;;;16.90;53.20;16.10;99305.00;;;;5022518;28;20481;-66
2022/01/04 04:37:21;;;;;;;3.22;2.30;;;16.90;53.30;16.10;99296.00;;;;5003222;28;20535;-67
2022/01/04 04:40:08;;;;;;;3.95;2.60;;;16.90;53.10;16.10;99283.00;;;;5018172;28;20037;-67
2022/01/04 04:42:55;;;;;;;4.55;2.50;;;16.90;53.20;16.10;99282.00;;;;5024109;28;20037;-67
2022/01/04 04:45:41;;;;;;;3.95;2.35;;;16.90;53.20;16.10;99286.00;;;;5007062;28;20398;-67
2022/01/04 04:48:28;;;;;;;3.97;2.72;;;16.90;53.10;16.10;99288.00;;;;5014906;28;20124;-67
2022/01/04 04:51:14;;;;;;;4.43;2.42;;;16.90;53.00;16.10;99289.00;;;;5008170;28;20051;-67
2022/01/04 04:54:00;;;;;;;5.20;2.38;;;16.90;53.10;16.10;99288.00;;;;5021181;28;20102;-67
2022/01/04 04:56:46;;;;;;;4.85;2.40;;;16.90;53.10;16.10;99286.00;;;;5001548;28;20067;-67
2022/01/04 04:59:32;;;;;;;4.65;2.65;;;17.00;53.10;16.10;99289.00;;;;5019238;28;20101;-67
2022/01/04 05:02:19;;;;;;;2.90;2.35;;;16.90;53.10;16.10;99289.00;;;;5026523;28;20068;-67
2022/01/04 05:05:06;;;;;;;2.95;2.05;;;16.90;53.10;16.10;99286.00;;;;5020319;28;20125;-67
2022/01/04 05:07:52;;;;;;;;;;;17.00;53.10;16.10;99293.00;;;;5018466;28;20091;-67
2022/01/04 05:10:39;;;;;;;3.83;2.42;;;17.00;53.20;16.10;99289.00;;;;5023984;28;20259;-67
2022/01/04 05:13:25;;;;;;;4.07;2.63;;;17.00;53.10;16.10;99285.00;;;;5018522;28;20134;-67
2022/01/04 05:16:11;;;;;;;4.13;2.60;;;17.00;53.00;16.10;99275.00;;;;5014306;28;20030;-67
2022/01/04 05:18:57;;;;;;;4.95;2.67;;;17.00;53.00;16.10;99277.00;;;;5016833;28;20045;-67
2022/01/04 05:21:43;;;;;;;3.67;2.40;;;17.00;53.00;16.10;99274.00;;;;5012787;28;20150;-67
2022/01/04 05:24:30;;;;;;;5.50;2.72;;;17.00;53.00;16.10;99278.00;;;;5016871;28;20041;-67
2022/01/04 05:27:16;;;;;;;4.00;2.88;;;17.00;53.10;16.10;99268.00;;;;5016024;28;20479;-67
2022/01/04 05:30:03;;;;;;;3.55;2.40;;;17.00;53.10;16.10;99260.00;;;;5015612;28;20041;-66
2022/01/04 05:32:49;;;;;;;8.10;3.45;;;17.00;53.10;16.10;99268.00;;;;5000926;28;20053;-67
2022/01/04 05:35:36;;;;;;;4.50;2.38;;;16.90;53.10;16.10;99268.00;;;;5014138;28;20038;-67
2022/01/04 05:38:22;;;;;;;3.13;2.67;;;16.90;53.10;16.10;99260.00;;;;4998991;28;20034;-67
2022/01/04 05:41:08;;;;;;;4.95;2.60;;;16.90;53.00;16.10;99259.00;;;;5023842;28;20492;-67
2022/01/04 05:43:54;;;;;;;4.20;2.50;;;16.90;53.00;16.10;99271.00;;;;5016543;28;20124;-67
2022/01/04 05:46:40;;;;;;;3.47;2.60;;;16.90;53.10;16.10;99250.00;;;;5015588;28;20053;-67
2022/01/04 05:49:27;;;;;;;4.15;2.65;;;17.00;53.10;16.10;99257.00;;;;5019568;28;20032;-67
2022/01/04 05:52:13;;;;;;;4.55;3.00;;;16.90;53.00;16.10;99266.00;;;;5017193;28;20391;-66
2022/01/04 05:54:59;;;;;;;4.70;2.70;;;16.90;53.00;16.10;99263.00;;;;5009550;28;20127;-67
2022/01/04 05:57:45;;;;;;;3.95;2.90;;;16.90;53.00;16.10;99238.00;;;;4998853;28;20041;-67
2022/01/04 06:00:32;;;;;;;6.38;3.00;;;16.90;53.00;16.10;99223.00;;;;5014042;28;20388;-66
2022/01/04 06:03:18;;;;;;;3.27;2.50;;;16.90;53.00;16.10;99221.00;;;;5022353;28;20116;-67
2022/01/04 06:06:04;;;;;;;4.28;2.88;;;16.90;53.00;16.10;99226.00;;;;5022890;28;20449;-67
2022/01/04 06:08:51;;;;;;;3.75;2.88;;;16.90;53.10;16.10;99219.00;;;;4999052;28;20071;-67
2022/01/04 06:17:34;;;;;;;5.35;2.80;;;17.00;53.10;16.10;99221.00;;;;5014810;28;20400;-67
2022/01/04 06:20:21;;;;;;;5.13;2.83;;;16.90;53.00;16.10;99207.00;;;;5017199;28;20465;-67
2022/01/04 06:23:08;;;;;;;3.85;2.83;;;16.90;53.00;16.10;99196.00;;;;5013039;28;20418;-67
2022/01/04 06:25:54;;;;;;;3.70;2.90;;;16.90;53.00;16.10;99192.00;;;;5018916;28;20052;-67
2022/01/04 06:28:41;;;;;;;3.88;3.28;;;17.20;53.20;16.10;99191.00;;;;5011770;28;20525;-67
2022/01/04 06:31:27;;;;;;;6.63;3.10;;;17.00;53.10;16.10;99192.00;;;;4999313;28;20041;-67
2022/01/04 06:34:13;;;;;;;3.80;3.25;;;16.90;53.00;16.10;99185.00;;;;4980020;28;20053;-67
2022/01/04 06:36:59;;;;;;;5.47;3.22;;;16.90;53.00;16.10;99185.00;;;;4998036;28;20037;-67
2022/01/04 06:39:46;;;;;;;4.10;2.90;;;16.90;53.00;16.10;99190.00;;;;5004675;28;20045;-67
2022/01/04 06:42:32;;;;;;;7.03;3.70;;;16.90;53.00;16.10;99194.00;;;;5015121;28;20079;-67
2022/01/04 06:45:18;;;;;;;5.93;3.85;;;16.90;53.00;16.10;99199.00;;;;5018776;28;20075;-67
2022/01/04 06:48:05;;;;;;;6.90;3.78;;;16.90;53.10;16.10;99216.00;;;;5016673;28;20215;-67
2022/01/04 06:50:51;;;;;;;6.05;3.85;;;16.90;53.00;16.10;99211.00;;;;5023430;28;20048;-67
2022/01/04 06:53:37;;;;;;;7.13;3.70;;;16.90;53.00;16.10;99204.00;;;;5024081;28;20463;-67
2022/01/04 06:56:24;;;;;;;5.07;3.83;;;16.90;53.00;16.10;99202.00;;;;5006283;28;20069;-67
2022/01/04 06:59:10;;;;;;;5.32;3.50;;;16.90;52.90;16.10;99203.00;;;;5020400;28;20057;-67
2022/01/04 07:01:56;;;;;;;6.55;4.30;;;16.90;52.90;16.10;99203.00;;;;5005968;28;20049;-67
2022/01/04 07:04:42;;;;;;;5.60;3.67;;;16.90;52.80;16.10;99191.00;;;;5017188;28;20557;-67
2022/01/04 07:07:30;;;;;;;7.65;4.40;;;16.90;52.80;16.10;99191.00;;;;5011743;28;20418;-67
2022/01/04 07:10:16;;;;;;;6.22;4.50;;;16.90;52.80;16.10;99199.00;;;;5001597;28;20041;-66
2022/01/04 07:13:02;;;;;;;5.72;3.75;;;16.90;52.80;16.10;99195.00;;;;5021132;28;20046;-66
2022/01/04 07:15:48;;;;;;;8.30;3.55;;;17.00;52.90;16.10;99190.00;;;;5021075;28;20137;-67
2022/01/04 07:18:34;;;;;;;4.72;4.10;;;16.90;52.70;16.10;99189.00;;;;5017529;28;20172;-67
2022/01/04 07:21:21;;;;;;;6.32;4.30;;;16.90;52.80;16.10;99180.00;;;;5019287;28;20072;-66
2022/01/04 07:24:07;;;;;;;6.80;4.60;;;16.90;52.80;16.10;99185.00;;;;5019936;28;20479;-67
2022/01/04 07:26:53;;;;;;;5.70;4.45;;;16.90;52.80;16.00;99176.00;;;;5003000;28;20051;-67
2022/01/04 07:29:39;;;;;;;7.68;4.10;;;16.90;52.80;16.10;99158.00;;;;5020938;28;20042;-67
2022/01/04 07:32:26;;;;;;;6.10;4.03;;;16.90;52.80;16.10;99149.00;;;;5020617;28;20030;-66
2022/01/04 07:35:12;;;;;;;6.97;4.03;;;16.90;52.80;16.00;99145.00;;;;4999432;28;20055;-66
2022/01/04 07:37:58;;;;;;;5.28;4.05;;;16.90;52.90;16.00;99157.00;;;;5006275;28;20037;-66
2022/01/04 07:40:45;;;;;;;7.88;4.28;;;16.90;53.50;16.00;99149.00;;;;5022415;28;20065;-67
2022/01/04 07:43:32;;;;;;;7.63;4.30;;;16.90;52.90;16.00;99161.00;;;;5022783;28;20041;-67
2022/01/04 07:46:18;;;;;;;7.28;4.47;;;16.90;52.80;16.00;99156.00;;;;5002741;28;20080;-67
2022/01/04 07:49:05;;;;;;;5.53;3.92;;;16.90;52.80;16.00;99152.00;;;;5014318;28;20510;-67
2022/01/04 07:51:51;;;;;;;7.60;4.40;;;16.90;52.80;16.00;99137.00;;;;5016459;28;20049;-67
2022/01/04 07:54:38;;;;;;;9.52;4.40;;;16.90;52.80;16.00;99122.00;;;;5007899;28;20442;-67
2022/01/04 07:57:24;;;;;;;8.27;4.57;;;16.80;52.70;16.00;99123.00;;;;5016192;28;20041;-66
2022/01/04 08:00:12;;;;;;;6.55;4.68;;;16.80;52.70;16.00;99114.00;;;;4999485;28;20048;-67
2022/01/04 08:02:59;;;;;;;7.50;4.10;;;16.80;52.80;16.00;99114.00;;;;5001406;28;20041;-67
2022/01/04 08:05:45;;;;;;;6.60;4.45;;;16.90;52.80;16.00;99110.00;;;;5012202;28;21018;-67
2022/01/04 08:08:31;;;;;;;6.53;4.35;;;16.80;52.80;16.00;99114.00;;;;5004342;28;20195;-67
2022/01/04 08:11:19;;;;;;;6.53;4.80;;;16.80;52.70;16.00;99116.00;;;;5000546;28;20045;-67
2022/01/04 08:14:05;;;;;;;6.70;4.80;;;16.80;52.70;16.00;99109.00;;;;4998451;28;20056;-67
2022/01/04 08:16:53;;;;;;;6.05;5.05;;;16.80;52.70;16.00;99112.00;;;;5003488;28;20136;-67
2022/01/04 08:19:39;;;;;;;7.53;4.80;;;16.80;52.70;16.00;99110.00;;;;4991060;28;20107;-67
2022/01/04 08:22:31;;;;;;;6.57;4.55;;;16.80;52.70;16.00;99110.00;;;;5017194;28;20041;-67
2022/01/04 08:25:17;;;;;;;6.00;4.72;;;16.80;52.80;16.00;99111.00;;;;4983232;28;20072;-67
2022/01/04 08:28:04;;;;;;;7.00;4.50;;;16.80;52.80;16.00;99115.00;;;;5016573;28;20073;-67
2022/01/04 08:30:50;;;;;;;6.20;4.57;;;16.80;52.70;16.00;99118.00;;;;5016311;28;20153;-67
2022/01/04 08:33:37;;;;;;;6.03;4.30;;;16.90;52.80;16.00;99106.00;;;;5017715;28;20380;-67
2022/01/04 08:36:27;;;;;;;7.53;4.85;;;16.80;52.70;16.00;99110.00;;;;5002204;28;20632;-66
2022/01/04 08:39:14;;;;;;;5.72;4.88;;;16.80;52.80;16.00;99114.00;;;;5004463;28;20051;-67
2022/01/04 08:42:02;;;;;;;7.68;4.53;;;16.80;52.70;16.00;99100.00;;;;4997313;28;20038;-67
2022/01/04 08:44:51;;;;;;;7.68;4.82;;;16.80;52.70;16.00;99113.00;;;;5018281;28;20042;-67
2022/01/04 08:47:38;;;;;;;8.43;4.55;;;16.80;52.80;16.00;99116.00;;;;5005007;28;20034;-67
2022/01/04 08:50:24;;;;;;;7.57;4.65;;;16.80;52.70;16.00;99116.00;;;;5011998;28;20494;-67
2022/01/04 08:53:12;;;;;;;6.85;4.68;;;16.80;52.80;16.00;99116.00;;;;5017146;28;20038;-67
2022/01/04 08:56:01;;;;;;;7.63;5.18;;;16.90;52.80;16.00;99123.00;;;;4994214;28;20049;-67
2022/01/04 08:58:48;;;;;;;6.15;4.57;;;16.80;52.80;16.00;99125.00;;;;5015127;28;20487;-67
2022/01/04 09:01:35;;;;;;;7.75;5.15;;;16.80;52.80;16.00;99120.00;;;;5015037;28;20443;-67
2022/01/04 09:04:21;;;;;;;7.77;5.23;;;16.80;52.80;16.00;99122.00;;;;5001498;28;20731;-67
2022/01/04 09:07:08;;;;;;;10.30;4.88;;;16.80;52.70;16.00;99123.00;;;;5014006;28;20399;-67
2022/01/04 09:09:54;;;;;;;10.65;5.40;;;16.80;52.70;16.00;99122.00;;;;5001420;28;20045;-67
2022/01/04 09:12:57;;;;;;;7.00;4.75;;;16.80;52.80;16.00;99124.00;;;;5015273;28;20045;-67
2022/01/04 09:18:51;;;;;;;7.60;4.75;;;16.80;52.70;16.00;99110.00;;;;5020624;28;20468;-67
2022/01/04 09:21:37;;;;;;;6.45;4.63;;;16.80;52.70;16.00;99097.00;;;;5004419;28;20041;-66
2022/01/04 09:24:23;;;;;;;7.00;4.90;;;16.80;52.70;16.00;99107.00;;;;5021909;28;20033;-67
2022/01/04 09:27:10;;;;;;;7.50;4.65;;;16.80;52.70;16.00;99105.00;;;;5003583;28;20047;-66
2022/01/04 09:29:57;;;;;;;7.55;4.55;;;16.80;52.80;16.00;99126.00;;;;5007533;28;20044;-67
2022/01/04 09:32:48;;;;;;;7.68;5.22;;;16.80;52.70;15.90;99124.00;;;;5017316;28;20042;-67
2022/01/04 09:35:36;;;;;;;7.50;4.80;;;16.70;52.60;15.90;99143.00;;;;5013292;28;20180;-67
2022/01/04 09:38:22;;;;;;;6.55;4.75;;;16.80;52.70;15.90;99136.00;;;;5005534;28;20236;-67
2022/01/04 09:41:08;;;;;;;7.50;5.03;;;16.80;52.70;15.90;99132.00;;;;5004876;28;20065;-67
2022/01/04 09:43:55;;;;;;;8.10;5.22;;;16.70;52.60;15.90;99131.00;;;;5015557;28;20042;-67
2022/01/04 09:46:41;;;;;;;6.90;5.40;;;16.80;52.70;15.90;99129.00;;;;5012440;28;20053;-67
2022/01/04 09:49:28;;;;;;;7.43;4.88;;;16.80;52.70;15.90;99120.00;;;;5007348;28;20128;-67
2022/01/04 09:52:19;;;;;;;6.35;4.90;;;16.70;52.70;15.90;99118.00;;;;4991262;28;20107;-67
2022/01/04 09:55:06;;;;;;;6.00;5.03;;;16.80;52.70;15.90;99125.00;;;;4999264;28;20044;-67
2022/01/04 09:57:53;;;;;;;6.40;4.82;;;16.70;52.70;15.90;99123.00;;;;4999497;28;20061;-67
2022/01/04 10:00:39;;;;;;;8.32;5.25;;;16.70;52.70;15.90;99135.00;;;;5019183;28;20212;-67
2022/01/04 10:03:29;;;;;;;6.72;4.55;;;16.80;52.80;15.90;99128.00;;;;5015373;28;20353;-67
2022/01/04 10:06:16;;;;;;;8.40;5.00;;;16.70;52.70;15.90;99128.00;;;;4991838;28;20080;-67
2022/01/04 10:09:10;;;;;;;8.13;5.57;;;16.70;52.70;15.90;99125.00;;;;5011140;28;20502;-67
2022/01/04 10:11:58;;;;;;;8.65;5.30;;;16.70;52.60;15.90;99125.00;;;;5002262;28;20049;-67
2022/01/04 10:14:46;;;;;;;6.57;5.00;;;16.70;52.60;15.90;99119.00;;;;5010016;28;20077;-67
2022/01/04 10:17:35;;;;;;;8.50;5.18;;;16.70;52.60;15.90;99112.00;;;;5009758;28;20080;-67
2022/01/04 10:20:22;;;;;;;8.32;5.05;;;16.70;52.60;15.90;99116.00;;;;5008132;28;20126;-67
2022/01/04 10:23:20;;;;;;;6.75;5.43;;;16.70;52.70;15.90;99112.00;;;;4990468;28;20530;-67
2022/01/04 10:26:07;;;;;;;7.68;5.55;;;16.70;52.60;15.90;99099.00;;;;5001799;28;20092;-67
2022/01/04 10:28:53;;;;;;;6.15;5.15;;;16.70;52.70;15.90;99094.00;;;;4983102;28;20431;-67
2022/01/04 10:31:39;;;;;;;6.93;5.72;;;16.70;52.70;15.90;99086.00;;;;5019885;28;20045;-67
2022/01/04 10:34:45;;;;;;;8.23;5.90;;;16.70;52.60;15.90;99078.00;;;;5003486;28;20041;-67
2022/01/04 10:37:39;;;;;;;5.90;5.18;;;16.70;52.60;15.90;99065.00;;;;5004561;28;20168;-67
2022/01/04 10:40:26;;;;;;;6.30;5.43;;;16.70;52.50;15.90;99072.00;;;;4992754;28;20033;-67
2022/01/04 10:43:15;;;;;;;7.77;5.03;;;16.70;52.60;15.90;99066.00;;;;5019370;28;20112;-67
2022/01/04 10:46:02;;;;;;;9.10;5.20;;;16.70;52.50;15.90;99065.00;;;;5008736;28;20286;-67
2022/01/04 10:48:50;;;;;;;8.47;5.03;;;16.70;52.60;15.90;99068.00;;;;5017686;28;20049;-67
2022/01/04 10:51:36;;;;;;;5.65;4.95;;;16.70;52.70;15.90;99074.00;;;;5005771;28;20288;-67
2022/01/04 10:54:24;;;;;;;7.28;4.82;;;16.70;52.70;15.90;99070.00;;;;5023165;28;20457;-67
2022/01/04 10:57:11;;;;;;;7.15;5.03;;;16.70;52.80;15.90;99063.00;;;;5003547;28;20033;-67
2022/01/04 11:00:17;;;;;;;7.82;5.05;;;16.70;52.70;15.90;99066.00;;;;5020015;28;20041;-67
2022/01/04 11:03:03;;;;;;;6.70;5.13;;;16.70;52.70;15.90;99061.00;;;;4991948;28;20033;-67
2022/01/04 11:06:03;;;;;;;6.05;4.72;;;16.70;52.70;15.90;99055.00;;;;5024184;28;20083;-67
2022/01/04 11:08:49;;;;;;;6.90;5.32;;;16.70;52.70;15.90;99048.00;;;;5018061;28;20060;-67
2022/01/04 11:11:35;;;;;;;7.05;5.18;;;16.70;52.70;15.90;99041.00;;;;5018924;28;20116;-67
2022/01/04 11:14:21;;;;;;;6.90;5.03;;;16.70;52.70;15.90;99055.00;;;;5005136;28;20114;-67
2022/01/04 11:17:09;;;;;;;6.72;5.25;;;16.70;52.70;15.90;99058.00;;;;5013196;28;20072;-67
2022/01/04 11:19:55;;;;;;;8.02;5.53;;;16.70;52.70;15.90;99056.00;;;;5010495;28;20037;-67
2022/01/04 11:22:46;;;;;;;6.25;4.68;;;16.70;52.70;15.90;99059.00;;;;5015306;28;20240;-67
2022/01/04 11:25:32;;;;;;;8.63;6.20;;;16.70;52.70;15.90;99057.00;;;;5004327;28;20518;-67
2022/01/04 11:28:19;;;;;;;9.02;5.03;;;16.80;52.70;15.90;99047.00;;;;5003678;28;20186;-67
2022/01/04 11:31:30;;;;;;;8.93;5.60;;;16.70;52.70;15.90;99034.00;;;;4988954;28;20115;-67
2022/01/04 11:34:31;;;;;;;7.65;5.50;;;16.70;52.60;15.90;99039.00;;;;5016857;28;20207;-67
2022/01/04 11:37:19;;;;;;;7.82;5.88;;;16.70;52.60;15.90;99037.00;;;;5016159;28;20050;-67
2022/01/04 11:40:36;;;;;;;9.52;5.90;;;16.70;52.70;15.90;99040.00;;;;5017746;28;20190;-67
2022/01/04 11:43:34;;;;;;;8.30;5.80;;;16.70;52.70;15.90;99044.00;;;;4992537;28;20146;-67
2022/01/04 11:46:35;;;;;;;9.55;6.18;;;16.70;52.60;15.80;99054.00;;;;5002273;28;20041;-67
2022/01/04 11:49:21;;;;;;;7.13;6.03;;;16.70;52.50;15.80;99037.00;;;;5005440;28;20033;-67
2022/01/04 11:52:09;;;;;;;8.15;6.03;;;16.70;52.60;15.80;99037.00;;;;5002340;28;20049;-67
2022/01/04 11:55:33;;;;;;;9.07;6.50;;;16.70;52.60;15.80;99040.00;;;;5019973;28;20044;-67
2022/01/04 11:58:23;;;;;;;8.70;6.20;;;16.70;52.60;15.80;99020.00;;;;5004466;28;20049;-67
2022/01/04 12:01:11;;;;;;;9.77;6.45;;;16.70;52.60;15.80;99013.00;;;;5005966;28;20069;-67
2022/01/04 12:03:57;;;;;;;7.80;6.13;;;16.60;52.60;15.80;99017.00;;;;4989657;28;20041;-67
2022/01/04 12:06:45;;;;;;;7.75;6.38;;;16.70;52.60;15.80;99023.00;;;;5019396;28;20056;-67
2022/01/04 12:09:31;;;;;;;11.05;6.43;;;16.70;52.60;15.80;99020.00;;;;5018376;28;20128;-67
2022/01/04 12:13:22;;;;;;;7.75;5.85;;;16.60;52.50;15.80;99040.00;;;;5016583;28;20052;-67
2022/01/04 12:16:08;;;;;;;7.07;5.82;;;16.60;52.60;15.80;99014.00;;;;5015053;28;20480;-67
2022/01/04 12:18:57;;;;;;;7.25;5.75;;;16.70;52.50;15.80;99025.00;;;;5015610;28;20046;-67
2022/01/04 12:21:46;;;;;;;11.40;6.35;;;16.60;52.50;15.80;99017.00;;;;5015872;28;20752;-67
2022/01/04 12:24:43;;;;;;;9.55;5.90;;;16.60;52.50;15.80;99018.00;;;;5004645;28;20344;-67
2022/01/04 12:27:29;;;;;;;9.77;5.88;;;16.60;52.40;15.80;99015.00;;;;5001723;28;20053;-67
2022/01/04 12:30:25;;;;;;;6.10;5.20;;;16.60;52.40;15.80;99011.00;;;;5004219;28;20049;-67
2022/01/04 12:33:34;;;;;;;7.43;5.60;;;16.60;52.30;15.80;99014.00;;;;5007695;28;20501;-67
2022/01/04 12:36:27;;;;;;;;;;;16.60;52.20;15.80;99020.00;;;;5018153;28;20175;-67